PILOTS ONLINE: 426    ATC ONLINE: 59

KHHR

Jack Northrop Field Hawthorne Municipal Airport

Location

City Hawthorne
Country  United States
Latitude 33° 55' 22" N
Longitude 118° 20' 5" W
Elevation 66 ft
Type Medium Airport

Map

Weather

METAR
2014/08/29 13:53
KHHR 291353Z 00000KT 9SM CLR 20/17 A2989 RMK AO2 SLP119 T02000172
TAF
No TAF available

Runways

07/25 4956 ft / 100 ft

Outbound flights

Callsign Flying to Pilot ATD/STD ETA Aircraft

Inbound flights

Callsign Flying from Pilot ATD ETA Aircraft